sensor_id;sensor_type;location;lat;lon;timestamp;temperature;humidity
25250;DHT22;13201;51.148;13.738;2023-07-29T00:01:31;21.30;99.90
25250;DHT22;13201;51.148;13.738;2023-07-29T00:03:56;21.30;99.90
25250;DHT22;13201;51.148;13.738;2023-07-29T00:06:23;21.20;99.90
25250;DHT22;13201;51.148;13.738;2023-07-29T00:08:49;21.20;99.90
25250;DHT22;13201;51.148;13.738;2023-07-29T00:11:14;21.20;99.90
25250;DHT22;13201;51.148;13.738;2023-07-29T00:13:40;21.20;99.90
25250;DHT22;13201;51.148;13.738;2023-07-29T00:16:06;21.20;99.90
25250;DHT22;13201;51.148;13.738;2023-07-29T00:18:32;21.20;99.90
25250;DHT22;13201;51.148;13.738;2023-07-29T00:20:58;21.10;99.90
25250;DHT22;13201;51.148;13.738;2023-07-29T00:23:23;21.10;99.90
25250;DHT22;13201;51.148;13.738;2023-07-29T00:25:49;21.20;99.90
25250;DHT22;13201;51.148;13.738;2023-07-29T00:28:15;21.20;99.90
25250;DHT22;13201;51.148;13.738;2023-07-29T00:30:41;21.20;99.90
25250;DHT22;13201;51.148;13.738;2023-07-29T00:33:06;21.20;99.90
25250;DHT22;13201;51.148;13.738;2023-07-29T00:35:32;21.20;99.90
25250;DHT22;13201;51.148;13.738;2023-07-29T00:37:58;21.20;99.90
25250;DHT22;13201;51.148;13.738;2023-07-29T00:40:23;21.30;99.90
25250;DHT22;13201;51.148;13.738;2023-07-29T00:42:50;21.20;99.90
25250;DHT22;13201;51.148;13.738;2023-07-29T00:45:16;21.20;99.90
25250;DHT22;13201;51.148;13.738;2023-07-29T00:47:42;21.10;99.90
25250;DHT22;13201;51.148;13.738;2023-07-29T00:50:10;21.10;99.90
25250;DHT22;13201;51.148;13.738;2023-07-29T00:52:36;21.10;99.90
25250;DHT22;13201;51.148;13.738;2023-07-29T00:55:03;21.00;99.90
25250;DHT22;13201;51.148;13.738;2023-07-29T00:57:29;20.90;99.90
25250;DHT22;13201;51.148;13.738;2023-07-29T00:59:56;20.70;99.90
25250;DHT22;13201;51.148;13.738;2023-07-29T01:02:22;20.80;99.90
25250;DHT22;13201;51.148;13.738;2023-07-29T01:29:29;19.40;99.90
25250;DHT22;13201;51.148;13.738;2023-07-29T01:31:58;19.30;99.90
25250;DHT22;13201;51.148;13.738;2023-07-29T01:34:32;19.30;99.90
25250;DHT22;13201;51.148;13.738;2023-07-29T01:37:02;19.40;99.90
25250;DHT22;13201;51.148;13.738;2023-07-29T01:39:32;19.60;99.90
25250;DHT22;13201;51.148;13.738;2023-07-29T01:42:00;19.70;99.90
25250;DHT22;13201;51.148;13.738;2023-07-29T01:44:27;19.80;99.90
25250;DHT22;13201;51.148;13.738;2023-07-29T01:46:54;19.90;99.90
25250;DHT22;13201;51.148;13.738;2023-07-29T01:49:20;20.10;99.90
25250;DHT22;13201;51.148;13.738;2023-07-29T01:51:46;20.10;99.90
25250;DHT22;13201;51.148;13.738;2023-07-29T01:54:11;20.20;99.90
25250;DHT22;13201;51.148;13.738;2023-07-29T01:56:37;20.10;99.90
25250;DHT22;13201;51.148;13.738;2023-07-29T01:59:02;20.10;99.90
25250;DHT22;13201;51.148;13.738;2023-07-29T02:01:28;20.10;99.90
25250;DHT22;13201;51.148;13.738;2023-07-29T02:03:54;20.20;99.90
25250;DHT22;13201;51.148;13.738;2023-07-29T02:06:22;20.10;99.90
25250;DHT22;13201;51.148;13.738;2023-07-29T02:08:48;20.20;99.90
25250;DHT22;13201;51.148;13.738;2023-07-29T02:11:14;20.20;99.90
25250;DHT22;13201;51.148;13.738;2023-07-29T02:13:40;20.20;99.90
25250;DHT22;13201;51.148;13.738;2023-07-29T02:16:05;20.30;99.90
25250;DHT22;13201;51.148;13.738;2023-07-29T02:18:31;20.10;99.90
25250;DHT22;13201;51.148;13.738;2023-07-29T02:20:57;20.20;99.90
25250;DHT22;13201;51.148;13.738;2023-07-29T02:23:22;20.20;99.90
25250;DHT22;13201;51.148;13.738;2023-07-29T02:25:48;20.20;99.90
25250;DHT22;13201;51.148;13.738;2023-07-29T02:28:15;20.10;99.90
25250;DHT22;13201;51.148;13.738;2023-07-29T02:30:41;20.20;99.90
25250;DHT22;13201;51.148;13.738;2023-07-29T02:33:09;20.20;99.90
25250;DHT22;13201;51.148;13.738;2023-07-29T02:35:35;20.30;99.90
25250;DHT22;13201;51.148;13.738;2023-07-29T02:38:01;20.30;99.90
25250;DHT22;13201;51.148;13.738;2023-07-29T02:40:26;20.30;99.90
25250;DHT22;13201;51.148;13.738;2023-07-29T02:42:53;20.40;99.90
25250;DHT22;13201;51.148;13.738;2023-07-29T02:45:19;20.40;99.90
25250;DHT22;13201;51.148;13.738;2023-07-29T02:47:44;20.30;99.90
25250;DHT22;13201;51.148;13.738;2023-07-29T02:50:10;20.30;99.90
25250;DHT22;13201;51.148;13.738;2023-07-29T02:52:36;20.30;99.90
25250;DHT22;13201;51.148;13.738;2023-07-29T02:55:01;20.30;99.90
25250;DHT22;13201;51.148;13.738;2023-07-29T02:57:27;20.30;99.90
25250;DHT22;13201;51.148;13.738;2023-07-29T02:59:53;20.40;99.90
25250;DHT22;13201;51.148;13.738;2023-07-29T03:02:18;20.30;99.90
25250;DHT22;13201;51.148;13.738;2023-07-29T03:04:44;20.30;99.90
25250;DHT22;13201;51.148;13.738;2023-07-29T03:07:09;20.30;99.90
25250;DHT22;13201;51.148;13.738;2023-07-29T03:09:36;20.40;99.90
25250;DHT22;13201;51.148;13.738;2023-07-29T03:12:02;20.40;99.90
25250;DHT22;13201;51.148;13.738;2023-07-29T03:14:27;20.30;99.90
25250;DHT22;13201;51.148;13.738;2023-07-29T03:16:53;20.30;99.90
25250;DHT22;13201;51.148;13.738;2023-07-29T03:19:19;20.30;99.90
25250;DHT22;13201;51.148;13.738;2023-07-29T03:21:44;20.30;99.90
25250;DHT22;13201;51.148;13.738;2023-07-29T03:24:11;20.30;99.90
25250;DHT22;13201;51.148;13.738;2023-07-29T03:26:36;20.40;99.90
25250;DHT22;13201;51.148;13.738;2023-07-29T03:29:02;20.40;99.90
25250;DHT22;13201;51.148;13.738;2023-07-29T03:31:28;20.50;99.90
25250;DHT22;13201;51.148;13.738;2023-07-29T03:33:53;20.50;99.90
25250;DHT22;13201;51.148;13.738;2023-07-29T03:36:21;20.50;99.90
25250;DHT22;13201;51.148;13.738;2023-07-29T03:38:46;20.30;99.90
25250;DHT22;13201;51.148;13.738;2023-07-29T03:41:12;20.40;99.90
25250;DHT22;13201;51.148;13.738;2023-07-29T03:43:38;20.40;99.90
25250;DHT22;13201;51.148;13.738;2023-07-29T03:46:04;20.40;99.90
25250;DHT22;13201;51.148;13.738;2023-07-29T03:48:30;20.40;99.90
25250;DHT22;13201;51.148;13.738;2023-07-29T03:50:56;20.50;99.90
25250;DHT22;13201;51.148;13.738;2023-07-29T03:53:22;20.40;99.90
25250;DHT22;13201;51.148;13.738;2023-07-29T03:55:48;20.50;99.90
25250;DHT22;13201;51.148;13.738;2023-07-29T03:58:15;20.50;99.90
25250;DHT22;13201;51.148;13.738;2023-07-29T04:00:41;20.60;99.90
25250;DHT22;13201;51.148;13.738;2023-07-29T04:03:08;20.60;99.90
25250;DHT22;13201;51.148;13.738;2023-07-29T04:05:33;20.70;99.90
25250;DHT22;13201;51.148;13.738;2023-07-29T04:07:59;20.70;99.90
25250;DHT22;13201;51.148;13.738;2023-07-29T04:10:25;20.70;99.90
25250;DHT22;13201;51.148;13.738;2023-07-29T04:12:50;20.80;99.90
25250;DHT22;13201;51.148;13.738;2023-07-29T04:15:16;20.90;99.90
25250;DHT22;13201;51.148;13.738;2023-07-29T04:17:42;20.90;99.90
25250;DHT22;13201;51.148;13.738;2023-07-29T04:20:08;20.80;99.90
25250;DHT22;13201;51.148;13.738;2023-07-29T04:22:34;20.80;99.90
25250;DHT22;13201;51.148;13.738;2023-07-29T04:25:00;20.90;99.90
25250;DHT22;13201;51.148;13.738;2023-07-29T04:27:25;20.80;99.90
25250;DHT22;13201;51.148;13.738;2023-07-29T04:29:51;21.00;99.90
25250;DHT22;13201;51.148;13.738;2023-07-29T04:32:16;20.90;99.90
25250;DHT22;13201;51.148;13.738;2023-07-29T04:34:42;20.90;99.90
25250;DHT22;13201;51.148;13.738;2023-07-29T04:37:08;21.00;99.90
25250;DHT22;13201;51.148;13.738;2023-07-29T04:39:33;21.00;99.90
25250;DHT22;13201;51.148;13.738;2023-07-29T04:41:59;21.10;99.90
25250;DHT22;13201;51.148;13.738;2023-07-29T04:44:26;21.10;99.90
25250;DHT22;13201;51.148;13.738;2023-07-29T04:46:51;21.10;99.90
25250;DHT22;13201;51.148;13.738;2023-07-29T04:49:17;21.10;99.90
25250;DHT22;13201;51.148;13.738;2023-07-29T04:51:43;21.10;99.90
25250;DHT22;13201;51.148;13.738;2023-07-29T04:54:08;21.10;99.90
25250;DHT22;13201;51.148;13.738;2023-07-29T04:56:34;21.10;99.90
25250;DHT22;13201;51.148;13.738;2023-07-29T04:59:00;21.10;99.90
25250;DHT22;13201;51.148;13.738;2023-07-29T05:01:25;21.20;99.90
25250;DHT22;13201;51.148;13.738;2023-07-29T05:03:51;21.30;99.90
25250;DHT22;13201;51.148;13.738;2023-07-29T05:06:17;21.30;99.90
25250;DHT22;13201;51.148;13.738;2023-07-29T05:08:42;21.40;99.90
25250;DHT22;13201;51.148;13.738;2023-07-29T05:11:08;21.40;99.90
25250;DHT22;13201;51.148;13.738;2023-07-29T05:13:34;21.50;99.90
25250;DHT22;13201;51.148;13.738;2023-07-29T05:15:59;21.40;99.90
25250;DHT22;13201;51.148;13.738;2023-07-29T05:18:25;21.40;99.90
25250;DHT22;13201;51.148;13.738;2023-07-29T05:20:51;21.50;99.90
25250;DHT22;13201;51.148;13.738;2023-07-29T05:23:16;21.70;99.90
25250;DHT22;13201;51.148;13.738;2023-07-29T05:25:42;21.60;99.90
25250;DHT22;13201;51.148;13.738;2023-07-29T05:28:08;21.70;99.90
25250;DHT22;13201;51.148;13.738;2023-07-29T05:30:33;21.80;99.90
25250;DHT22;13201;51.148;13.738;2023-07-29T05:33:03;21.90;99.90
25250;DHT22;13201;51.148;13.738;2023-07-29T05:35:29;21.90;99.90
25250;DHT22;13201;51.148;13.738;2023-07-29T05:37:55;22.00;99.90
25250;DHT22;13201;51.148;13.738;2023-07-29T05:40:21;21.90;99.90
25250;DHT22;13201;51.148;13.738;2023-07-29T05:42:46;21.90;99.90
25250;DHT22;13201;51.148;13.738;2023-07-29T05:45:13;21.90;99.90
25250;DHT22;13201;51.148;13.738;2023-07-29T05:47:39;21.80;99.90
25250;DHT22;13201;51.148;13.738;2023-07-29T05:50:05;21.80;99.90
25250;DHT22;13201;51.148;13.738;2023-07-29T05:52:31;22.00;99.90
25250;DHT22;13201;51.148;13.738;2023-07-29T05:54:57;22.00;99.90
25250;DHT22;13201;51.148;13.738;2023-07-29T05:57:23;22.20;99.90
25250;DHT22;13201;51.148;13.738;2023-07-29T05:59:48;22.20;99.90
25250;DHT22;13201;51.148;13.738;2023-07-29T06:02:14;22.20;99.90
25250;DHT22;13201;51.148;13.738;2023-07-29T06:04:40;22.20;99.90
25250;DHT22;13201;51.148;13.738;2023-07-29T06:07:06;22.20;99.90
25250;DHT22;13201;51.148;13.738;2023-07-29T06:09:32;22.30;99.90
25250;DHT22;13201;51.148;13.738;2023-07-29T06:11:58;22.30;99.90
25250;DHT22;13201;51.148;13.738;2023-07-29T06:14:23;22.30;99.90
25250;DHT22;13201;51.148;13.738;2023-07-29T06:16:49;22.40;99.90
25250;DHT22;13201;51.148;13.738;2023-07-29T06:19:15;22.50;99.90
25250;DHT22;13201;51.148;13.738;2023-07-29T06:21:40;22.70;99.90
25250;DHT22;13201;51.148;13.738;2023-07-29T06:24:06;22.50;99.90
25250;DHT22;13201;51.148;13.738;2023-07-29T06:26:32;22.60;99.90
25250;DHT22;13201;51.148;13.738;2023-07-29T06:28:57;22.70;99.90
25250;DHT22;13201;51.148;13.738;2023-07-29T06:31:23;22.80;99.90
25250;DHT22;13201;51.148;13.738;2023-07-29T06:33:49;23.00;99.90
25250;DHT22;13201;51.148;13.738;2023-07-29T06:36:14;23.00;99.90
25250;DHT22;13201;51.148;13.738;2023-07-29T06:38:40;23.10;99.90
25250;DHT22;13201;51.148;13.738;2023-07-29T06:41:07;23.20;99.90
25250;DHT22;13201;51.148;13.738;2023-07-29T06:43:33;23.40;99.90
25250;DHT22;13201;51.148;13.738;2023-07-29T06:45:58;23.50;99.90
25250;DHT22;13201;51.148;13.738;2023-07-29T06:48:24;23.50;99.90
25250;DHT22;13201;51.148;13.738;2023-07-29T06:50:50;23.70;99.90
25250;DHT22;13201;51.148;13.738;2023-07-29T06:53:16;23.70;99.90
25250;DHT22;13201;51.148;13.738;2023-07-29T06:55:42;23.60;99.90
25250;DHT22;13201;51.148;13.738;2023-07-29T06:58:08;23.60;99.90
25250;DHT22;13201;51.148;13.738;2023-07-29T07:00:34;23.50;99.90
25250;DHT22;13201;51.148;13.738;2023-07-29T07:03:00;23.70;99.90
25250;DHT22;13201;51.148;13.738;2023-07-29T07:05:25;23.40;99.90
25250;DHT22;13201;51.148;13.738;2023-07-29T07:07:51;23.40;99.90
25250;DHT22;13201;51.148;13.738;2023-07-29T07:10:18;23.50;99.90
25250;DHT22;13201;51.148;13.738;2023-07-29T07:12:44;23.60;99.90
25250;DHT22;13201;51.148;13.738;2023-07-29T07:15:09;23.50;99.90
25250;DHT22;13201;51.148;13.738;2023-07-29T07:17:35;23.60;99.90
25250;DHT22;13201;51.148;13.738;2023-07-29T07:20:01;23.60;99.90
25250;DHT22;13201;51.148;13.738;2023-07-29T07:22:26;23.80;99.90
25250;DHT22;13201;51.148;13.738;2023-07-29T07:24:52;23.80;99.90
25250;DHT22;13201;51.148;13.738;2023-07-29T07:27:18;23.90;99.90
25250;DHT22;13201;51.148;13.738;2023-07-29T07:29:43;23.90;99.90
25250;DHT22;13201;51.148;13.738;2023-07-29T07:32:09;23.90;99.90
25250;DHT22;13201;51.148;13.738;2023-07-29T07:34:35;24.10;99.90
25250;DHT22;13201;51.148;13.738;2023-07-29T07:37:00;24.10;99.90
25250;DHT22;13201;51.148;13.738;2023-07-29T07:39:26;24.20;99.90
25250;DHT22;13201;51.148;13.738;2023-07-29T07:41:52;24.40;99.90
25250;DHT22;13201;51.148;13.738;2023-07-29T07:44:18;24.60;99.90
25250;DHT22;13201;51.148;13.738;2023-07-29T07:46:45;24.70;99.90
25250;DHT22;13201;51.148;13.738;2023-07-29T07:49:11;24.90;99.90
25250;DHT22;13201;51.148;13.738;2023-07-29T07:51:38;25.00;99.90
25250;DHT22;13201;51.148;13.738;2023-07-29T07:54:03;25.20;99.90
25250;DHT22;13201;51.148;13.738;2023-07-29T07:56:29;25.10;99.90
25250;DHT22;13201;51.148;13.738;2023-07-29T07:58:55;25.20;99.90
25250;DHT22;13201;51.148;13.738;2023-07-29T08:01:20;25.10;99.90
25250;DHT22;13201;51.148;13.738;2023-07-29T08:03:46;25.20;99.90
25250;DHT22;13201;51.148;13.738;2023-07-29T08:06:12;25.30;99.90
25250;DHT22;13201;51.148;13.738;2023-07-29T08:08:37;25.50;99.90
25250;DHT22;13201;51.148;13.738;2023-07-29T08:11:03;25.50;99.90
25250;DHT22;13201;51.148;13.738;2023-07-29T08:13:28;25.40;99.90
25250;DHT22;13201;51.148;13.738;2023-07-29T08:15:54;25.10;99.90
25250;DHT22;13201;51.148;13.738;2023-07-29T08:18:20;25.20;99.90
25250;DHT22;13201;51.148;13.738;2023-07-29T08:21:00;25.00;99.90
25250;DHT22;13201;51.148;13.738;2023-07-29T08:23:30;25.10;99.90
25250;DHT22;13201;51.148;13.738;2023-07-29T08:25:58;25.20;99.90
25250;DHT22;13201;51.148;13.738;2023-07-29T08:28:46;25.30;99.90
25250;DHT22;13201;51.148;13.738;2023-07-29T08:31:11;25.60;99.90
25250;DHT22;13201;51.148;13.738;2023-07-29T08:33:37;25.70;99.90
25250;DHT22;13201;51.148;13.738;2023-07-29T08:36:03;26.00;99.90
25250;DHT22;13201;51.148;13.738;2023-07-29T08:38:29;25.90;99.90
25250;DHT22;13201;51.148;13.738;2023-07-29T08:41:13;26.00;99.90
25250;DHT22;13201;51.148;13.738;2023-07-29T08:43:46;26.10;99.90
25250;DHT22;13201;51.148;13.738;2023-07-29T08:46:14;25.90;99.90
25250;DHT22;13201;51.148;13.738;2023-07-29T08:48:42;25.80;99.90
25250;DHT22;13201;51.148;13.738;2023-07-29T08:51:09;25.80;99.90
25250;DHT22;13201;51.148;13.738;2023-07-29T08:53:35;26.00;99.90
25250;DHT22;13201;51.148;13.738;2023-07-29T08:56:01;25.90;99.90
25250;DHT22;13201;51.148;13.738;2023-07-29T08:58:27;26.10;99.90
25250;DHT22;13201;51.148;13.738;2023-07-29T09:00:53;26.00;99.90
25250;DHT22;13201;51.148;13.738;2023-07-29T09:03:19;26.00;99.90
25250;DHT22;13201;51.148;13.738;2023-07-29T09:05:46;26.00;99.90
25250;DHT22;13201;51.148;13.738;2023-07-29T09:08:12;25.90;99.90
25250;DHT22;13201;51.148;13.738;2023-07-29T09:10:37;25.80;99.90
25250;DHT22;13201;51.148;13.738;2023-07-29T09:13:04;25.80;99.90
25250;DHT22;13201;51.148;13.738;2023-07-29T09:15:31;25.90;99.90
25250;DHT22;13201;51.148;13.738;2023-07-29T09:17:58;25.90;99.90
25250;DHT22;13201;51.148;13.738;2023-07-29T09:20:27;25.80;99.90
25250;DHT22;13201;51.148;13.738;2023-07-29T09:22:58;25.90;99.90
25250;DHT22;13201;51.148;13.738;2023-07-29T09:25:29;26.20;99.90
25250;DHT22;13201;51.148;13.738;2023-07-29T09:28:02;26.60;99.90
25250;DHT22;13201;51.148;13.738;2023-07-29T09:30:32;26.30;99.90
25250;DHT22;13201;51.148;13.738;2023-07-29T09:32:58;26.60;99.90
25250;DHT22;13201;51.148;13.738;2023-07-29T09:35:27;26.30;99.90
25250;DHT22;13201;51.148;13.738;2023-07-29T09:37:53;26.50;99.90
25250;DHT22;13201;51.148;13.738;2023-07-29T09:40:19;26.60;99.90
25250;DHT22;13201;51.148;13.738;2023-07-29T09:42:49;26.60;99.90
25250;DHT22;13201;51.148;13.738;2023-07-29T09:45:25;26.90;99.90
25250;DHT22;13201;51.148;13.738;2023-07-29T09:47:52;26.70;99.90
25250;DHT22;13201;51.148;13.738;2023-07-29T09:50:18;26.90;99.90
25250;DHT22;13201;51.148;13.738;2023-07-29T09:52:44;26.90;99.90
25250;DHT22;13201;51.148;13.738;2023-07-29T09:55:12;26.60;99.90
25250;DHT22;13201;51.148;13.738;2023-07-29T09:57:39;26.50;99.90
25250;DHT22;13201;51.148;13.738;2023-07-29T10:00:05;26.60;99.90
25250;DHT22;13201;51.148;13.738;2023-07-29T10:02:37;26.90;99.90
25250;DHT22;13201;51.148;13.738;2023-07-29T10:05:03;27.10;99.90
25250;DHT22;13201;51.148;13.738;2023-07-29T10:07:29;27.10;99.90
25250;DHT22;13201;51.148;13.738;2023-07-29T10:09:56;26.80;99.90
25250;DHT22;13201;51.148;13.738;2023-07-29T10:12:23;26.90;99.90
25250;DHT22;13201;51.148;13.738;2023-07-29T10:14:50;26.90;99.90
25250;DHT22;13201;51.148;13.738;2023-07-29T10:17:16;27.00;99.90
25250;DHT22;13201;51.148;13.738;2023-07-29T10:19:44;26.80;99.90
25250;DHT22;13201;51.148;13.738;2023-07-29T10:22:13;25.70;99.90
25250;DHT22;13201;51.148;13.738;2023-07-29T10:24:41;25.20;99.90
25250;DHT22;13201;51.148;13.738;2023-07-29T10:27:09;24.90;99.90
25250;DHT22;13201;51.148;13.738;2023-07-29T10:29:38;25.20;99.90
25250;DHT22;13201;51.148;13.738;2023-07-29T10:32:07;25.30;99.90
25250;DHT22;13201;51.148;13.738;2023-07-29T10:34:34;25.00;99.90
25250;DHT22;13201;51.148;13.738;2023-07-29T10:37:02;25.40;99.90
25250;DHT22;13201;51.148;13.738;2023-07-29T10:39:27;25.30;99.90
25250;DHT22;13201;51.148;13.738;2023-07-29T10:42:03;25.70;99.90
25250;DHT22;13201;51.148;13.738;2023-07-29T10:49:41;26.00;99.90
25250;DHT22;13201;51.148;13.738;2023-07-29T10:52:07;26.10;99.90
25250;DHT22;13201;51.148;13.738;2023-07-29T10:54:46;26.20;99.90
25250;DHT22;13201;51.148;13.738;2023-07-29T10:57:30;26.10;99.90
25250;DHT22;13201;51.148;13.738;2023-07-29T10:59:57;26.10;99.90
25250;DHT22;13201;51.148;13.738;2023-07-29T11:02:28;26.10;99.90
25250;DHT22;13201;51.148;13.738;2023-07-29T11:04:53;26.10;99.90
25250;DHT22;13201;51.148;13.738;2023-07-29T11:07:21;26.10;99.90
25250;DHT22;13201;51.148;13.738;2023-07-29T11:10:02;26.20;99.90
25250;DHT22;13201;51.148;13.738;2023-07-29T11:12:45;26.50;99.90
25250;DHT22;13201;51.148;13.738;2023-07-29T11:15:24;26.50;99.90
25250;DHT22;13201;51.148;13.738;2023-07-29T11:20:26;26.30;99.90
25250;DHT22;13201;51.148;13.738;2023-07-29T11:22:57;26.40;99.90
25250;DHT22;13201;51.148;13.738;2023-07-29T11:25:24;26.50;99.90
25250;DHT22;13201;51.148;13.738;2023-07-29T11:27:54;26.40;99.90
25250;DHT22;13201;51.148;13.738;2023-07-29T11:30:21;26.00;99.90
25250;DHT22;13201;51.148;13.738;2023-07-29T11:32:47;26.10;99.90
25250;DHT22;13201;51.148;13.738;2023-07-29T11:35:16;26.10;99.90
25250;DHT22;13201;51.148;13.738;2023-07-29T11:37:44;26.00;99.90
25250;DHT22;13201;51.148;13.738;2023-07-29T11:40:17;25.60;99.90
25250;DHT22;13201;51.148;13.738;2023-07-29T11:42:44;25.40;99.90
25250;DHT22;13201;51.148;13.738;2023-07-29T11:45:11;25.00;99.90
25250;DHT22;13201;51.148;13.738;2023-07-29T11:47:37;25.00;99.90
25250;DHT22;13201;51.148;13.738;2023-07-29T11:50:04;24.90;99.90
25250;DHT22;13201;51.148;13.738;2023-07-29T11:52:35;25.00;99.90
25250;DHT22;13201;51.148;13.738;2023-07-29T11:55:02;25.20;99.90
25250;DHT22;13201;51.148;13.738;2023-07-29T11:57:38;25.10;99.90
25250;DHT22;13201;51.148;13.738;2023-07-29T12:00:09;25.20;99.90
25250;DHT22;13201;51.148;13.738;2023-07-29T12:02:40;25.10;99.90
25250;DHT22;13201;51.148;13.738;2023-07-29T12:05:07;24.80;99.90
25250;DHT22;13201;51.148;13.738;2023-07-29T12:07:34;24.80;99.90
25250;DHT22;13201;51.148;13.738;2023-07-29T12:10:00;24.90;99.90
25250;DHT22;13201;51.148;13.738;2023-07-29T12:12:26;24.90;99.90
25250;DHT22;13201;51.148;13.738;2023-07-29T12:14:53;25.10;99.90
25250;DHT22;13201;51.148;13.738;2023-07-29T12:17:19;25.20;99.90
25250;DHT22;13201;51.148;13.738;2023-07-29T12:19:45;25.10;99.90
25250;DHT22;13201;51.148;13.738;2023-07-29T12:22:10;24.90;99.90
25250;DHT22;13201;51.148;13.738;2023-07-29T12:24:39;25.00;99.90
25250;DHT22;13201;51.148;13.738;2023-07-29T12:27:05;25.00;99.90
25250;DHT22;13201;51.148;13.738;2023-07-29T12:29:40;25.10;99.90
25250;DHT22;13201;51.148;13.738;2023-07-29T12:32:06;25.30;99.90
25250;DHT22;13201;51.148;13.738;2023-07-29T12:34:32;25.30;99.90
25250;DHT22;13201;51.148;13.738;2023-07-29T12:36:58;25.30;99.90
25250;DHT22;13201;51.148;13.738;2023-07-29T12:39:26;25.30;99.90
25250;DHT22;13201;51.148;13.738;2023-07-29T12:41:54;25.50;99.90
25250;DHT22;13201;51.148;13.738;2023-07-29T12:44:20;25.60;99.90
25250;DHT22;13201;51.148;13.738;2023-07-29T12:46:46;25.80;99.90
25250;DHT22;13201;51.148;13.738;2023-07-29T12:49:12;26.00;99.90
25250;DHT22;13201;51.148;13.738;2023-07-29T12:51:37;25.90;99.90
25250;DHT22;13201;51.148;13.738;2023-07-29T12:54:04;26.10;99.90
25250;DHT22;13201;51.148;13.738;2023-07-29T12:56:33;26.00;99.90
25250;DHT22;13201;51.148;13.738;2023-07-29T12:59:01;25.90;99.90
25250;DHT22;13201;51.148;13.738;2023-07-29T13:01:27;25.80;99.90
25250;DHT22;13201;51.148;13.738;2023-07-29T13:03:54;25.70;99.90
25250;DHT22;13201;51.148;13.738;2023-07-29T13:06:20;25.70;99.90
25250;DHT22;13201;51.148;13.738;2023-07-29T13:08:46;25.70;99.90
25250;DHT22;13201;51.148;13.738;2023-07-29T13:11:12;25.70;99.90
25250;DHT22;13201;51.148;13.738;2023-07-29T13:13:38;25.90;99.90
25250;DHT22;13201;51.148;13.738;2023-07-29T13:16:04;25.80;99.90
25250;DHT22;13201;51.148;13.738;2023-07-29T13:18:29;26.00;99.90
25250;DHT22;13201;51.148;13.738;2023-07-29T13:20:55;25.80;99.90
25250;DHT22;13201;51.148;13.738;2023-07-29T13:23:21;26.00;99.90
25250;DHT22;13201;51.148;13.738;2023-07-29T13:25:47;25.90;99.90
25250;DHT22;13201;51.148;13.738;2023-07-29T13:28:13;26.10;99.90
25250;DHT22;13201;51.148;13.738;2023-07-29T13:30:39;26.70;99.90
25250;DHT22;13201;51.148;13.738;2023-07-29T13:33:06;26.90;99.90
25250;DHT22;13201;51.148;13.738;2023-07-29T13:35:32;27.00;99.90
25250;DHT22;13201;51.148;13.738;2023-07-29T13:37:58;27.50;99.90
25250;DHT22;13201;51.148;13.738;2023-07-29T13:40:24;27.80;99.90
25250;DHT22;13201;51.148;13.738;2023-07-29T13:42:50;28.00;99.90
25250;DHT22;13201;51.148;13.738;2023-07-29T13:45:15;27.90;99.90
25250;DHT22;13201;51.148;13.738;2023-07-29T13:47:41;27.40;99.90
25250;DHT22;13201;51.148;13.738;2023-07-29T13:50:07;27.10;99.90
25250;DHT22;13201;51.148;13.738;2023-07-29T13:52:33;26.80;99.90
25250;DHT22;13201;51.148;13.738;2023-07-29T13:54:59;26.40;99.90
25250;DHT22;13201;51.148;13.738;2023-07-29T13:57:25;26.50;99.90
25250;DHT22;13201;51.148;13.738;2023-07-29T13:59:51;26.80;99.90
25250;DHT22;13201;51.148;13.738;2023-07-29T14:02:16;27.30;99.90
25250;DHT22;13201;51.148;13.738;2023-07-29T14:04:42;27.60;99.90
25250;DHT22;13201;51.148;13.738;2023-07-29T14:07:07;27.60;99.90
25250;DHT22;13201;51.148;13.738;2023-07-29T14:09:33;28.20;99.90
25250;DHT22;13201;51.148;13.738;2023-07-29T14:11:59;28.20;99.90
25250;DHT22;13201;51.148;13.738;2023-07-29T14:14:24;28.10;99.90
25250;DHT22;13201;51.148;13.738;2023-07-29T14:16:50;28.30;99.90
25250;DHT22;13201;51.148;13.738;2023-07-29T14:19:16;28.30;99.90
25250;DHT22;13201;51.148;13.738;2023-07-29T14:21:41;28.80;99.90
25250;DHT22;13201;51.148;13.738;2023-07-29T14:24:07;28.90;99.90
25250;DHT22;13201;51.148;13.738;2023-07-29T14:26:33;28.30;99.90
25250;DHT22;13201;51.148;13.738;2023-07-29T14:28:58;28.90;99.90
25250;DHT22;13201;51.148;13.738;2023-07-29T14:31:24;29.20;99.90
25250;DHT22;13201;51.148;13.738;2023-07-29T14:33:50;29.40;99.90
25250;DHT22;13201;51.148;13.738;2023-07-29T14:36:16;29.30;99.90
25250;DHT22;13201;51.148;13.738;2023-07-29T14:38:42;29.00;99.90
25250;DHT22;13201;51.148;13.738;2023-07-29T14:41:08;29.50;99.90
25250;DHT22;13201;51.148;13.738;2023-07-29T14:43:34;29.90;99.90
25250;DHT22;13201;51.148;13.738;2023-07-29T14:45:59;30.00;99.70
25250;DHT22;13201;51.148;13.738;2023-07-29T14:48:25;30.00;99.20
25250;DHT22;13201;51.148;13.738;2023-07-29T14:50:51;30.10;99.10
25250;DHT22;13201;51.148;13.738;2023-07-29T14:53:17;29.90;98.70
25250;DHT22;13201;51.148;13.738;2023-07-29T14:55:42;29.30;98.30
25250;DHT22;13201;51.148;13.738;2023-07-29T14:58:08;30.20;98.40
25250;DHT22;13201;51.148;13.738;2023-07-29T15:00:34;29.80;98.10
25250;DHT22;13201;51.148;13.738;2023-07-29T15:03:00;29.90;97.70
25250;DHT22;13201;51.148;13.738;2023-07-29T15:05:25;30.00;97.90
25250;DHT22;13201;51.148;13.738;2023-07-29T15:07:51;30.50;97.50
25250;DHT22;13201;51.148;13.738;2023-07-29T15:10:17;29.70;97.50
25250;DHT22;13201;51.148;13.738;2023-07-29T15:12:43;29.00;97.90
25250;DHT22;13201;51.148;13.738;2023-07-29T15:15:09;29.20;97.90
25250;DHT22;13201;51.148;13.738;2023-07-29T15:17:35;29.10;98.60
25250;DHT22;13201;51.148;13.738;2023-07-29T15:20:02;29.70;97.80
25250;DHT22;13201;51.148;13.738;2023-07-29T15:22:28;29.90;97.60
25250;DHT22;13201;51.148;13.738;2023-07-29T15:24:54;29.40;97.80
25250;DHT22;13201;51.148;13.738;2023-07-29T15:27:19;29.60;97.80
25250;DHT22;13201;51.148;13.738;2023-07-29T15:29:45;29.80;97.20
25250;DHT22;13201;51.148;13.738;2023-07-29T15:32:11;31.00;97.70
25250;DHT22;13201;51.148;13.738;2023-07-29T15:34:37;30.80;96.70
25250;DHT22;13201;51.148;13.738;2023-07-29T15:37:03;30.50;96.70
25250;DHT22;13201;51.148;13.738;2023-07-29T15:39:29;30.40;96.20
25250;DHT22;13201;51.148;13.738;2023-07-29T15:41:56;30.60;96.90
25250;DHT22;13201;51.148;13.738;2023-07-29T15:44:21;30.80;96.70